| time (UTC) | temp F | wind direction | speed knots | gust knots | rain 1hr in | rain 24hr in | rain mn in | humidity % | barometer mb |
| 20260505213105 | 79 | 150 | 2.6 | 6.1 | 0.00 | 0.00 | 0.00 | 40 | 1014.5 |
| 20260505211604 | 79 | 153 | 2.6 | 9.6 | 0.00 | 0.00 | 0.00 | 39 | 1014.5 |
| 20260505210059 | 79 | 288 | 0.9 | 4.3 | 0.00 | 0.00 | 0.00 | 39 | 1014.6 |
| 20260505204609 | 79 | 160 | 2.6 | 13.0 | 0.00 | 0.00 | 0.00 | 39 | 1014.5 |
| 20260505203101 | 78 | 0 | 1.7 | 7.8 | 0.00 | 0.00 | 0.00 | 38 | 1014.6 |
| 20260505201605 | 79 | 263 | 0.9 | 7.8 | 0.00 | 0.00 | 0.00 | 40 | 1014.7 |
| 20260505200104 | 79 | 304 | 1.7 | 7.8 | 0.00 | 0.00 | 0.00 | 39 | 1015.2 |
| 20260505194559 | 79 | 258 | 1.7 | 7.0 | 0.00 | 0.00 | 0.00 | 36 | 1015.6 |
| 20260505193101 | 79 | 186 | 2.6 | 9.6 | 0.00 | 0.00 | 0.00 | 38 | 1015.7 |
| 20260505191602 | 79 | 184 | 1.7 | 9.6 | 0.00 | 0.00 | 0.00 | 39 | 1015.9 |
| 20260505190111 | 78 | 144 | 2.6 | 7.0 | 0.00 | 0.00 | 0.00 | 38 | 1016.0 |
| 20260505184606 | 78 | 236 | 0.9 | 10.4 | 0.00 | 0.00 | 0.00 | 41 | 1016.2 |
| 20260505183100 | 79 | 255 | 1.7 | 7.0 | 0.00 | 0.00 | 0.00 | 41 | 1016.1 |
| 20260505181601 | 79 | 156 | 2.6 | 6.1 | 0.00 | 0.00 | 0.00 | 38 | 1016.7 |
| 20260505180104 | 79 | 0 | 1.7 | 7.0 | 0.00 | 0.00 | 0.00 | 38 | 1017.1 |
| 20260505174613 | 79 | 54 | 1.7 | 7.8 | 0.00 | 0.00 | 0.00 | 42 | 1017.3 |
| 20260505173108 | 78 | 0 | 0.9 | 5.2 | 0.00 | 0.00 | 0.00 | 43 | 1017.3 |
| 20260505171608 | 79 | 243 | 0.9 | 7.8 | 0.00 | 0.00 | 0.00 | 43 | 1017.0 |
| 20260505170139 | 78 | 196 | 0.9 | 5.2 | 0.00 | 0.00 | 0.00 | 43 | 1017.2 |
| 20260505164609 | 76 | 240 | 1.7 | 7.0 | 0.00 | 0.00 | 0.00 | 44 | 1017.3 |
| 20260505163109 | 77 | 232 | 0.9 | 6.1 | 0.00 | 0.00 | 0.00 | 48 | 1017.2 |
| 20260505161612 | 76 | 220 | 1.7 | 7.8 | 0.00 | 0.00 | 0.00 | 50 | 1017.4 |
| 20260505160113 | 76 | 203 | 0.0 | 6.1 | 0.00 | 0.00 | 0.00 | 54 | 1017.5 |
| 20260505153107 | 74 | 141 | 0.9 | 5.2 | 0.00 | 0.00 | 0.00 | 54 | 1017.7 |
| 20260505151559 | 73 | 221 | 1.7 | 4.3 | 0.00 | 0.00 | 0.00 | 58 | 1018.0 |
| 20260505124559 | 62 | 234 | 0.9 | 7.0 | 0.00 | 0.00 | 0.00 | 78 | 1017.5 |
| 20260505123115 | 61 | 202 | 0.9 | 4.3 | 0.00 | 0.00 | 0.00 | 78 | 1017.3 |
| 20260505120105 | 57 | 0 | 0.0 | 0.9 | 0.00 | 0.00 | 0.00 | 83 | 1017.0 |
| 20260505114615 | 55 | 0 | 0.0 | 0.9 | 0.00 | 0.00 | 0.00 | 85 | 1016.8 |
| 20260505113105 | 54 | 0 | 0.0 | 1.7 | 0.00 | 0.00 | 0.00 | 86 | 1017.0 |
| 20260505111608 | 53 | 0 | 0.0 | 0.9 | 0.00 | 0.00 | 0.00 | 86 | 1016.7 |
| 20260505101557 | 53 | 0 | 0.0 | 1.7 | 0.00 | 0.00 | 0.00 | 85 | 1016.5 |
| 20260505100058 | 52 | 0 | 0.0 | 0.9 | 0.00 | 0.00 | 0.00 | 85 | 1016.5 |
| 20260505094600 | 52 | 0 | 0.0 | 0.9 | 0.00 | 0.00 | 0.00 | 84 | 1016.4 |
| 20260505093059 | 53 | 0 | 0.0 | 0.0 | 0.00 | 0.00 | 0.00 | 82 | 1016.5 |
| 20260505091558 | 53 | 0 | 0.0 | 1.7 | 0.00 | 0.00 | 0.00 | 82 | 1016.3 |
| 20260505090100 | 54 | 0 | 0.0 | 1.7 | 0.00 | 0.00 | 0.00 | 80 | 1016.3 |
| 20260505084601 | 54 | 182 | 0.0 | 2.6 | 0.00 | 0.00 | 0.00 | 80 | 1016.3 |
| 20260505083118 | 54 | 210 | 0.0 | 0.9 | 0.00 | 0.00 | 0.00 | 79 | 1016.0 |
| 20260505081604 | 55 | 0 | 0.0 | 2.6 | 0.00 | 0.00 | 0.00 | 77 | 1016.1 |
| 20260505074556 | 55 | 156 | 0.9 | 4.3 | 0.00 | 0.00 | 0.00 | 75 | 1015.9 |
| 20260505073107 | 56 | 232 | 0.0 | 1.7 | 0.00 | 0.00 | 0.00 | 74 | 1015.9 |
| 20260505071605 | 56 | 180 | 0.0 | 2.6 | 0.00 | 0.00 | 0.00 | 72 | 1015.9 |
| 20260505070057 | 56 | 178 | 0.0 | 1.7 | 0.00 | 0.00 | 0.00 | 72 | 1015.9 |
| 20260505064605 | 56 | 157 | 0.0 | 3.5 | 0.00 | 0.00 | 0.00 | 71 | 1015.9 |
| 20260505063058 | 57 | 0 | 0.9 | 2.6 | 0.00 | 0.00 | 0.00 | 70 | 1015.8 |
| 20260505061604 | 57 | 142 | 0.9 | 2.6 | 0.00 | 0.00 | 0.00 | 68 | 1015.8 |
| 20260505060104 | 57 | 170 | 0.0 | 3.5 | 0.00 | 0.00 | 0.00 | 68 | 1015.9 |
| 20260505054606 | 56 | 157 | 0.0 | 1.7 | 0.00 | 0.00 | 0.00 | 69 | 1015.9 |
| 20260505053112 | 58 | 0 | 0.0 | 0.9 | 0.00 | 0.00 | 0.00 | 64 | 1016.0 |
| 20260505051558 | 58 | 0 | 0.0 | 0.9 | 0.00 | 0.00 | 0.00 | 65 | 1016.1 |
| 20260505041614 | 61 | 165 | 0.0 | 2.6 | 0.00 | 0.00 | 0.00 | 60 | 1016.2 |
| 20260505040100 | 62 | 207 | 0.0 | 1.7 | 0.00 | 0.00 | 0.00 | 58 | 1016.2 |
| 20260505034601 | 62 | 221 | 0.0 | 1.7 | 0.00 | 0.00 | 0.00 | 58 | 1016.3 |
| 20260505033100 | 62 | 0 | 0.0 | 2.6 | 0.00 | 0.00 | 0.00 | 57 | 1016.3 |
| 20260505031608 | 62 | 0 | 0.0 | 1.7 | 0.00 | 0.00 | 0.00 | 57 | 1016.2 |
| 20260505024603 | 64 | 189 | 0.0 | 5.2 | 0.00 | 0.00 | 0.00 | 55 | 1016.3 |
| 20260505023104 | 65 | 190 | 0.9 | 4.3 | 0.00 | 0.00 | 0.00 | 52 | 1016.2 |
| 20260505021558 | 66 | 176 | 0.0 | 4.3 | 0.00 | 0.00 | 0.00 | 51 | 1016.1 |
| 20260505020058 | 66 | 188 | 0.9 | 3.5 | 0.00 | 0.00 | 0.00 | 51 | 1016.0 |
| 20260505014603 | 65 | 165 | 0.0 | 1.7 | 0.00 | 0.00 | 0.00 | 52 | 1015.7 |
| 20260505013102 | 65 | 0 | 0.0 | 1.7 | 0.00 | 0.00 | 0.00 | 50 | 1015.6 |
| 20260505011559 | 66 | 0 | 0.0 | 0.9 | 0.00 | 0.00 | 0.00 | 48 | 1015.4 |
| 20260505004558 | 67 | 0 | 0.0 | 0.9 | 0.00 | 0.00 | 0.00 | 46 | 1015.3 |
| 20260505003058 | 69 | 170 | 0.0 | 1.7 | 0.00 | 0.00 | 0.00 | 44 | 1015.1 |
| 20260505001559 | 69 | 192 | 0.0 | 1.7 | 0.00 | 0.00 | 0.00 | 43 | 1015.1 |
| 20260505000109 | 70 | 173 | 0.9 | 3.5 | 0.00 | 0.00 | 0.00 | 42 | 1015.2 |
| 20260504234627 | 72 | 194 | 0.9 | 5.2 | 0.00 | 0.00 | 0.00 | 40 | 1014.8 |
| 20260504233104 | 73 | 140 | 1.7 | 6.1 | 0.00 | 0.00 | 0.00 | 39 | 1014.8 |
| 20260504231605 | 74 | 176 | 1.7 | 6.1 | 0.00 | 0.00 | 0.00 | 37 | 1014.6 |
| 20260504230059 | 75 | 230 | 1.7 | 5.2 | 0.00 | 0.00 | 0.00 | 36 | 1014.7 |
| 20260504224558 | 75 | 207 | 1.7 | 6.1 | 0.00 | 0.00 | 0.00 | 36 | 1014.5 |
| 20260504223100 | 76 | 144 | 0.9 | 7.8 | 0.00 | 0.00 | 0.00 | 35 | 1014.6 |
| 20260504221608 | 76 | 229 | 1.7 | 7.0 | 0.00 | 0.00 | 0.00 | 33 | 1014.6 |
| 20260504220059 | 76 | 211 | 0.9 | 9.6 | 0.00 | 0.00 | 0.00 | 35 | 1014.6 |
| 20260504214600 | 77 | 182 | 0.9 | 4.3 | 0.00 | 0.00 | 0.00 | 37 | 1014.4 |